sensor_id;sensor_type;location;lat;lon;timestamp;temperature;humidity
6930;DHT22;3504;52.616;13.238;2023-04-02T00:00:35;3.45;79.58
6930;DHT22;3504;52.616;13.238;2023-04-02T00:05:38;3.43;79.80
6930;DHT22;3504;52.616;13.238;2023-04-02T00:10:59;3.49;79.97
6930;DHT22;3504;52.616;13.238;2023-04-02T00:16:04;3.43;79.19
6930;DHT22;3504;52.616;13.238;2023-04-02T00:21:27;3.49;80.34
6930;DHT22;3504;52.616;13.238;2023-04-02T00:26:36;3.48;80.10
6930;DHT22;3504;52.616;13.238;2023-04-02T00:31:42;3.49;79.64
6930;DHT22;3504;52.616;13.238;2023-04-02T00:36:43;3.45;79.76
6930;DHT22;3504;52.616;13.238;2023-04-02T00:41:46;3.43;79.95
6930;DHT22;3504;52.616;13.238;2023-04-02T00:46:48;3.45;79.74
6930;DHT22;3504;52.616;13.238;2023-04-02T00:52:00;3.39;79.59
6930;DHT22;3504;52.616;13.238;2023-04-02T00:57:01;3.42;79.75
6930;DHT22;3504;52.616;13.238;2023-04-02T01:07:16;3.46;79.33
6930;DHT22;3504;52.616;13.238;2023-04-02T01:12:28;3.39;78.91
6930;DHT22;3504;52.616;13.238;2023-04-02T01:23:19;3.45;80.02
6930;DHT22;3504;52.616;13.238;2023-04-02T01:29:09;3.46;78.69
6930;DHT22;3504;52.616;13.238;2023-04-02T01:34:18;3.48;78.79
6930;DHT22;3504;52.616;13.238;2023-04-02T01:44:42;3.40;78.32
6930;DHT22;3504;52.616;13.238;2023-04-02T01:49:44;3.48;78.72
6930;DHT22;3504;52.616;13.238;2023-04-02T01:54:46;3.40;77.90
6930;DHT22;3504;52.616;13.238;2023-04-02T01:59:47;3.40;78.09
6930;DHT22;3504;52.616;13.238;2023-04-02T02:04:48;3.45;77.65
6930;DHT22;3504;52.616;13.238;2023-04-02T02:09:49;3.45;77.87
6930;DHT22;3504;52.616;13.238;2023-04-02T02:14:51;3.45;77.87
6930;DHT22;3504;52.616;13.238;2023-04-02T02:19:58;3.46;77.36
6930;DHT22;3504;52.616;13.238;2023-04-02T02:25:09;3.39;76.56
6930;DHT22;3504;52.616;13.238;2023-04-02T02:30:29;3.43;76.79
6930;DHT22;3504;52.616;13.238;2023-04-02T02:35:56;3.42;76.24
6930;DHT22;3504;52.616;13.238;2023-04-02T02:41:30;3.38;75.53
6930;DHT22;3504;52.616;13.238;2023-04-02T02:46:33;3.39;75.57
6930;DHT22;3504;52.616;13.238;2023-04-02T02:57:26;3.40;76.62
6930;DHT22;3504;52.616;13.238;2023-04-02T03:02:28;3.49;76.58
6930;DHT22;3504;52.616;13.238;2023-04-02T03:07:30;3.42;76.07
6930;DHT22;3504;52.616;13.238;2023-04-02T03:18:57;3.38;76.35
6930;DHT22;3504;52.616;13.238;2023-04-02T03:24:09;3.39;76.44
6930;DHT22;3504;52.616;13.238;2023-04-02T03:29:21;3.38;75.96
6930;DHT22;3504;52.616;13.238;2023-04-02T03:40:23;3.35;76.26
6930;DHT22;3504;52.616;13.238;2023-04-02T03:45:31;3.36;76.23
6930;DHT22;3504;52.616;13.238;2023-04-02T03:51:02;3.42;76.29
6930;DHT22;3504;52.616;13.238;2023-04-02T03:56:14;3.40;76.30
6930;DHT22;3504;52.616;13.238;2023-04-02T04:01:33;3.40;76.36
6930;DHT22;3504;52.616;13.238;2023-04-02T04:06:41;3.35;75.95
6930;DHT22;3504;52.616;13.238;2023-04-02T04:11:47;3.42;76.33
6930;DHT22;3504;52.616;13.238;2023-04-02T04:22:23;3.42;75.87
6930;DHT22;3504;52.616;13.238;2023-04-02T04:33:27;3.52;76.44
6930;DHT22;3504;52.616;13.238;2023-04-02T04:38:37;3.55;77.11
6930;DHT22;3504;52.616;13.238;2023-04-02T04:44:16;3.49;75.73
6930;DHT22;3504;52.616;13.238;2023-04-02T04:50:06;3.53;76.40
6930;DHT22;3504;52.616;13.238;2023-04-02T04:55:26;3.48;76.05
6930;DHT22;3504;52.616;13.238;2023-04-02T05:01:06;3.49;76.79
6930;DHT22;3504;52.616;13.238;2023-04-02T05:12:09;3.59;76.87
6930;DHT22;3504;52.616;13.238;2023-04-02T05:17:20;3.58;76.40
6930;DHT22;3504;52.616;13.238;2023-04-02T05:22:46;3.58;76.18
6930;DHT22;3504;52.616;13.238;2023-04-02T05:28:04;3.62;76.05
6930;DHT22;3504;52.616;13.238;2023-04-02T05:33:36;3.62;75.99
6930;DHT22;3504;52.616;13.238;2023-04-02T05:38:44;3.64;76.33
6930;DHT22;3504;52.616;13.238;2023-04-02T05:43:50;3.63;75.46
6930;DHT22;3504;52.616;13.238;2023-04-02T05:48:56;3.66;75.27
6930;DHT22;3504;52.616;13.238;2023-04-02T05:54:00;3.69;75.80
6930;DHT22;3504;52.616;13.238;2023-04-02T05:59:17;3.70;74.95
6930;DHT22;3504;52.616;13.238;2023-04-02T06:04:53;3.71;75.23
6930;DHT22;3504;52.616;13.238;2023-04-02T06:15:04;3.93;74.03
6930;DHT22;3504;52.616;13.238;2023-04-02T06:20:08;3.90;73.59
6930;DHT22;3504;52.616;13.238;2023-04-02T06:25:36;3.95;73.27
6930;DHT22;3504;52.616;13.238;2023-04-02T06:30:41;4.08;73.89
6930;DHT22;3504;52.616;13.238;2023-04-02T06:35:43;4.14;73.06
6930;DHT22;3504;52.616;13.238;2023-04-02T06:40:53;4.25;73.91
6930;DHT22;3504;52.616;13.238;2023-04-02T06:51:32;4.39;72.20
6930;DHT22;3504;52.616;13.238;2023-04-02T06:56:51;4.52;72.10
6930;DHT22;3504;52.616;13.238;2023-04-02T07:02:31;4.53;71.51
6930;DHT22;3504;52.616;13.238;2023-04-02T07:07:36;4.63;70.70
6930;DHT22;3504;52.616;13.238;2023-04-02T07:12:39;4.59;71.11
6930;DHT22;3504;52.616;13.238;2023-04-02T07:17:40;4.58;69.23
6930;DHT22;3504;52.616;13.238;2023-04-02T07:22:40;4.71;70.77
6930;DHT22;3504;52.616;13.238;2023-04-02T07:27:41;4.92;69.80
6930;DHT22;3504;52.616;13.238;2023-04-02T07:32:42;4.96;68.95
6930;DHT22;3504;52.616;13.238;2023-04-02T07:37:42;4.96;68.82
6930;DHT22;3504;52.616;13.238;2023-04-02T07:42:43;4.89;68.06
6930;DHT22;3504;52.616;13.238;2023-04-02T07:47:44;4.94;69.72
6930;DHT22;3504;52.616;13.238;2023-04-02T07:52:45;4.92;69.86
6930;DHT22;3504;52.616;13.238;2023-04-02T07:57:51;4.93;68.20
6930;DHT22;3504;52.616;13.238;2023-04-02T08:02:52;4.82;67.16
6930;DHT22;3504;52.616;13.238;2023-04-02T08:07:54;4.80;67.91
6930;DHT22;3504;52.616;13.238;2023-04-02T08:12:55;4.76;67.17
6930;DHT22;3504;52.616;13.238;2023-04-02T08:17:56;4.73;66.87
6930;DHT22;3504;52.616;13.238;2023-04-02T08:22:56;4.89;67.09
6930;DHT22;3504;52.616;13.238;2023-04-02T08:27:57;5.04;67.60
6930;DHT22;3504;52.616;13.238;2023-04-02T08:32:57;5.52;67.74
6930;DHT22;3504;52.616;13.238;2023-04-02T08:37:59;6.23;65.49
6930;DHT22;3504;52.616;13.238;2023-04-02T08:43:22;6.27;61.10
6930;DHT22;3504;52.616;13.238;2023-04-02T08:48:31;6.54;62.32
6930;DHT22;3504;52.616;13.238;2023-04-02T08:53:36;6.70;61.62
6930;DHT22;3504;52.616;13.238;2023-04-02T08:58:49;6.85;60.65
6930;DHT22;3504;52.616;13.238;2023-04-02T09:03:54;6.68;58.68
6930;DHT22;3504;52.616;13.238;2023-04-02T09:08:57;7.03;58.36
6930;DHT22;3504;52.616;13.238;2023-04-02T09:14:03;7.36;59.34
6930;DHT22;3504;52.616;13.238;2023-04-02T09:19:19;7.73;55.52
6930;DHT22;3504;52.616;13.238;2023-04-02T09:24:20;8.14;56.58
6930;DHT22;3504;52.616;13.238;2023-04-02T09:29:43;8.49;52.65
6930;DHT22;3504;52.616;13.238;2023-04-02T09:34:44;8.33;54.33
6930;DHT22;3504;52.616;13.238;2023-04-02T09:39:44;8.46;56.49
6930;DHT22;3504;52.616;13.238;2023-04-02T09:44:45;7.99;54.87
6930;DHT22;3504;52.616;13.238;2023-04-02T09:49:45;7.71;56.22
6930;DHT22;3504;52.616;13.238;2023-04-02T10:00:23;7.44;56.05
6930;DHT22;3504;52.616;13.238;2023-04-02T10:05:26;8.32;56.13
6930;DHT22;3504;52.616;13.238;2023-04-02T10:10:31;8.83;53.73
6930;DHT22;3504;52.616;13.238;2023-04-02T10:15:41;9.86;53.07
6930;DHT22;3504;52.616;13.238;2023-04-02T10:20:44;9.74;49.04
6930;DHT22;3504;52.616;13.238;2023-04-02T10:25:56;9.22;50.24
6930;DHT22;3504;52.616;13.238;2023-04-02T10:31:20;8.73;51.17
6930;DHT22;3504;52.616;13.238;2023-04-02T10:42:04;8.91;50.04
6930;DHT22;3504;52.616;13.238;2023-04-02T10:52:21;8.39;51.67
6930;DHT22;3504;52.616;13.238;2023-04-02T10:57:41;8.21;52.18
6930;DHT22;3504;52.616;13.238;2023-04-02T11:02:53;8.40;52.31
6930;DHT22;3504;52.616;13.238;2023-04-02T11:08:15;8.61;51.19
6930;DHT22;3504;52.616;13.238;2023-04-02T11:13:30;9.08;50.44
6930;DHT22;3504;52.616;13.238;2023-04-02T11:18:33;9.79;51.44
6930;DHT22;3504;52.616;13.238;2023-04-02T11:23:57;9.70;49.90
6930;DHT22;3504;52.616;13.238;2023-04-02T11:29:28;9.66;49.41
6930;DHT22;3504;52.616;13.238;2023-04-02T11:34:58;9.15;49.49
6930;DHT22;3504;52.616;13.238;2023-04-02T11:50:41;8.60;50.33
6930;DHT22;3504;52.616;13.238;2023-04-02T12:11:35;9.76;50.26
6930;DHT22;3504;52.616;13.238;2023-04-02T12:16:37;9.39;50.05
6930;DHT22;3504;52.616;13.238;2023-04-02T12:21:37;9.63;49.34
6930;DHT22;3504;52.616;13.238;2023-04-02T12:26:38;9.70;48.98
6930;DHT22;3504;52.616;13.238;2023-04-02T12:31:44;9.36;49.79
6930;DHT22;3504;52.616;13.238;2023-04-02T12:37:00;9.24;49.14
6930;DHT22;3504;52.616;13.238;2023-04-02T12:42:04;9.31;49.14
6930;DHT22;3504;52.616;13.238;2023-04-02T12:47:04;9.12;49.58
6930;DHT22;3504;52.616;13.238;2023-04-02T12:52:11;9.35;47.94
6930;DHT22;3504;52.616;13.238;2023-04-02T12:57:33;9.01;47.37
6930;DHT22;3504;52.616;13.238;2023-04-02T13:02:45;9.05;48.11
6930;DHT22;3504;52.616;13.238;2023-04-02T13:07:46;8.90;47.43
6930;DHT22;3504;52.616;13.238;2023-04-02T13:12:47;9.04;49.84
6930;DHT22;3504;52.616;13.238;2023-04-02T13:23:37;8.59;48.75
6930;DHT22;3504;52.616;13.238;2023-04-02T13:28:38;9.11;50.76
6930;DHT22;3504;52.616;13.238;2023-04-02T13:33:38;8.87;47.84
6930;DHT22;3504;52.616;13.238;2023-04-02T13:38:40;8.79;49.09
6930;DHT22;3504;52.616;13.238;2023-04-02T13:43:40;8.70;48.63
6930;DHT22;3504;52.616;13.238;2023-04-02T13:48:41;8.96;48.55
6930;DHT22;3504;52.616;13.238;2023-04-02T13:53:41;8.67;47.28
6930;DHT22;3504;52.616;13.238;2023-04-02T13:58:42;8.60;47.70
6930;DHT22;3504;52.616;13.238;2023-04-02T14:03:43;8.84;48.74
6930;DHT22;3504;52.616;13.238;2023-04-02T14:09:21;8.94;48.95
6930;DHT22;3504;52.616;13.238;2023-04-02T14:42:20;8.53;49.63
6930;DHT22;3504;52.616;13.238;2023-04-02T14:47:28;8.45;50.91
6930;DHT22;3504;52.616;13.238;2023-04-02T14:52:32;8.45;50.29
6930;DHT22;3504;52.616;13.238;2023-04-02T14:57:47;8.43;51.67
6930;DHT22;3504;52.616;13.238;2023-04-02T15:03:14;8.15;51.67
6930;DHT22;3504;52.616;13.238;2023-04-02T15:08:35;7.87;51.73
6930;DHT22;3504;52.616;13.238;2023-04-02T15:18:52;8.01;51.48
6930;DHT22;3504;52.616;13.238;2023-04-02T15:24:29;7.80;51.82
6930;DHT22;3504;52.616;13.238;2023-04-02T15:30:09;7.64;52.90
6930;DHT22;3504;52.616;13.238;2023-04-02T15:35:44;7.74;50.88
6930;DHT22;3504;52.616;13.238;2023-04-02T15:40:57;7.64;50.42
6930;DHT22;3504;52.616;13.238;2023-04-02T15:46:21;7.57;50.40
6930;DHT22;3504;52.616;13.238;2023-04-02T15:51:42;7.53;51.50
6930;DHT22;3504;52.616;13.238;2023-04-02T16:08:10;7.05;52.19
6930;DHT22;3504;52.616;13.238;2023-04-02T16:13:30;6.91;52.92
6930;DHT22;3504;52.616;13.238;2023-04-02T16:18:42;6.92;52.95
6930;DHT22;3504;52.616;13.238;2023-04-02T16:23:44;6.95;53.34
6930;DHT22;3504;52.616;13.238;2023-04-02T16:34:14;6.72;53.67
6930;DHT22;3504;52.616;13.238;2023-04-02T16:39:51;6.63;53.19
6930;DHT22;3504;52.616;13.238;2023-04-02T16:50:41;6.34;53.60
6930;DHT22;3504;52.616;13.238;2023-04-02T16:56:42;6.29;54.37
6930;DHT22;3504;52.616;13.238;2023-04-02T17:07:32;6.07;54.85
6930;DHT22;3504;52.616;13.238;2023-04-02T17:12:46;5.93;55.11
6930;DHT22;3504;52.616;13.238;2023-04-02T17:17:47;5.83;56.25
6930;DHT22;3504;52.616;13.238;2023-04-02T17:22:49;5.74;56.38
6930;DHT22;3504;52.616;13.238;2023-04-02T17:27:54;5.57;56.86
6930;DHT22;3504;52.616;13.238;2023-04-02T17:32:55;5.51;57.37
6930;DHT22;3504;52.616;13.238;2023-04-02T17:38:11;5.41;57.77
6930;DHT22;3504;52.616;13.238;2023-04-02T17:44:00;5.31;58.80
6930;DHT22;3504;52.616;13.238;2023-04-02T17:55:17;5.13;59.76
6930;DHT22;3504;52.616;13.238;2023-04-02T18:05:55;4.96;60.86
6930;DHT22;3504;52.616;13.238;2023-04-02T18:11:55;4.87;60.63
6930;DHT22;3504;52.616;13.238;2023-04-02T18:23:01;4.73;61.65
6930;DHT22;3504;52.616;13.238;2023-04-02T18:39:05;4.39;61.70
6930;DHT22;3504;52.616;13.238;2023-04-02T18:49:39;4.25;62.57
6930;DHT22;3504;52.616;13.238;2023-04-02T18:55:04;4.15;62.71
6930;DHT22;3504;52.616;13.238;2023-04-02T19:00:31;4.02;63.01
6930;DHT22;3504;52.616;13.238;2023-04-02T19:06:03;3.95;63.31
6930;DHT22;3504;52.616;13.238;2023-04-02T19:11:16;3.90;63.57
6930;DHT22;3504;52.616;13.238;2023-04-02T19:16:39;3.79;63.95
6930;DHT22;3504;52.616;13.238;2023-04-02T19:27:49;3.69;64.46
6930;DHT22;3504;52.616;13.238;2023-04-02T19:33:14;3.59;65.08
6930;DHT22;3504;52.616;13.238;2023-04-02T19:38:48;3.56;65.14
6930;DHT22;3504;52.616;13.238;2023-04-02T19:43:55;3.48;65.22
6930;DHT22;3504;52.616;13.238;2023-04-02T19:49:14;3.45;65.52
6930;DHT22;3504;52.616;13.238;2023-04-02T19:54:17;3.32;65.92
6930;DHT22;3504;52.616;13.238;2023-04-02T19:59:17;3.20;66.18
6930;DHT22;3504;52.616;13.238;2023-04-02T20:04:18;3.18;66.47
6930;DHT22;3504;52.616;13.238;2023-04-02T20:09:18;3.08;66.66
6930;DHT22;3504;52.616;13.238;2023-04-02T20:14:20;3.05;66.98
6930;DHT22;3504;52.616;13.238;2023-04-02T20:19:20;3.07;67.03
6930;DHT22;3504;52.616;13.238;2023-04-02T20:24:21;2.92;67.60
6930;DHT22;3504;52.616;13.238;2023-04-02T20:29:21;2.89;67.39
6930;DHT22;3504;52.616;13.238;2023-04-02T20:34:23;2.85;67.63
6930;DHT22;3504;52.616;13.238;2023-04-02T20:39:24;2.77;68.29
6930;DHT22;3504;52.616;13.238;2023-04-02T20:44:24;2.73;68.01
6930;DHT22;3504;52.616;13.238;2023-04-02T20:49:26;2.68;68.18
6930;DHT22;3504;52.616;13.238;2023-04-02T20:54:26;2.66;68.15
6930;DHT22;3504;52.616;13.238;2023-04-02T20:59:27;2.61;68.19
6930;DHT22;3504;52.616;13.238;2023-04-02T21:04:27;2.57;68.46
6930;DHT22;3504;52.616;13.238;2023-04-02T21:09:28;2.54;68.41
6930;DHT22;3504;52.616;13.238;2023-04-02T21:14:28;2.53;68.44
6930;DHT22;3504;52.616;13.238;2023-04-02T21:19:34;2.46;68.54
6930;DHT22;3504;52.616;13.238;2023-04-02T21:24:35;2.39;69.02
6930;DHT22;3504;52.616;13.238;2023-04-02T21:29:35;2.33;69.16
6930;DHT22;3504;52.616;13.238;2023-04-02T21:34:36;2.32;69.00
6930;DHT22;3504;52.616;13.238;2023-04-02T21:39:36;2.19;69.54
6930;DHT22;3504;52.616;13.238;2023-04-02T21:44:37;2.13;69.61
6930;DHT22;3504;52.616;13.238;2023-04-02T21:49:37;2.17;72.49
6930;DHT22;3504;52.616;13.238;2023-04-02T21:54:38;2.13;69.60
6930;DHT22;3504;52.616;13.238;2023-04-02T21:59:38;2.09;69.65
6930;DHT22;3504;52.616;13.238;2023-04-02T22:04:39;2.03;69.97
6930;DHT22;3504;52.616;13.238;2023-04-02T22:09:40;1.96;70.18
6930;DHT22;3504;52.616;13.238;2023-04-02T22:14:41;1.91;70.47
6930;DHT22;3504;52.616;13.238;2023-04-02T22:19:42;1.82;70.79
6930;DHT22;3504;52.616;13.238;2023-04-02T22:24:42;1.78;70.72
6930;DHT22;3504;52.616;13.238;2023-04-02T22:29:43;1.77;70.84
6930;DHT22;3504;52.616;13.238;2023-04-02T22:34:43;1.74;70.75
6930;DHT22;3504;52.616;13.238;2023-04-02T22:39:44;1.71;70.90
6930;DHT22;3504;52.616;13.238;2023-04-02T22:44:45;1.68;71.05
6930;DHT22;3504;52.616;13.238;2023-04-02T22:49:46;1.68;70.92
6930;DHT22;3504;52.616;13.238;2023-04-02T22:54:46;1.62;70.97
6930;DHT22;3504;52.616;13.238;2023-04-02T22:59:47;1.57;71.20
6930;DHT22;3504;52.616;13.238;2023-04-02T23:04:47;1.52;71.25
6930;DHT22;3504;52.616;13.238;2023-04-02T23:09:48;1.48;71.38
6930;DHT22;3504;52.616;13.238;2023-04-02T23:14:49;1.48;71.18
6930;DHT22;3504;52.616;13.238;2023-04-02T23:19:49;1.39;71.43
6930;DHT22;3504;52.616;13.238;2023-04-02T23:24:50;1.40;71.24
6930;DHT22;3504;52.616;13.238;2023-04-02T23:29:53;1.34;71.55
6930;DHT22;3504;52.616;13.238;2023-04-02T23:34:54;1.31;71.44
6930;DHT22;3504;52.616;13.238;2023-04-02T23:39:54;1.34;71.21
6930;DHT22;3504;52.616;13.238;2023-04-02T23:44:55;1.29;71.42
6930;DHT22;3504;52.616;13.238;2023-04-02T23:49:55;1.29;71.30
6930;DHT22;3504;52.616;13.238;2023-04-02T23:54:56;1.30;71.09
6930;DHT22;3504;52.616;13.238;2023-04-02T23:59:56;1.30;71.13
